ATL weather

Hartsfield Jackson Atlanta International Airport
Atlanta, Georgia, United States

Public forecast

Using degrees Fahrenheit for public forecast. Weather courtesy of forecast.io.

Current aviation weather report (METAR) for Hartsfield Jackson Atlanta International Airport

Retrieved 2019/10/20 19:52 UTC (35 minutes ago):

KATL 201952Z 32007KT 10SM SCT025 22/15 A2992 RMK AO2 SLP128 T02170150

Aviation forecast (TAF) for Hartsfield Jackson Atlanta International Airport

Retrieved 2019/10/20 18:33 UTC (2 hours ago):

TAF KATL 201731Z 2018/2124 31009G15KT P6SM BKN015 FM201900 30008KT P6SM SCT015 FM202000 28008KT P6SM FEW250 FM210500 19003KT P6SM SCT045 FM211000 13003KT P6SM SCT015 BKN035 FM211200 13004KT P6SM BKN015 FM211600 16008KT P6SM SCT025 BKN060